createdAt,value
2022-10-23T00:01:45.547Z,72.48
2022-10-23T00:04:31.325Z,74.28
2022-10-23T00:06:59.146Z,72.38
2022-10-23T00:09:27.005Z,72.40
2022-10-23T00:11:54.876Z,72.94
2022-10-23T00:14:25.195Z,73.24
2022-10-23T00:16:53.014Z,73.93
2022-10-23T00:19:20.682Z,74.02
2022-10-23T00:21:48.593Z,74.04
2022-10-23T00:24:16.364Z,73.66
2022-10-23T00:26:44.443Z,74.09
2022-10-23T00:29:12.711Z,73.59
2022-10-23T00:31:40.587Z,73.84
2022-10-23T00:34:09.192Z,73.48
2022-10-23T00:36:37.034Z,73.63
2022-10-23T00:39:05.704Z,73.92
2022-10-23T00:41:33.775Z,73.48
2022-10-23T00:44:09.207Z,73.76
2022-10-23T00:46:39.365Z,73.44
2022-10-23T00:49:09.664Z,73.07
2022-10-23T00:51:42.594Z,75.44
2022-10-23T00:54:23.454Z,73.62
2022-10-23T00:56:56.536Z,73.46
2022-10-23T00:59:25.634Z,73.41
2022-10-23T01:01:53.688Z,72.94
2022-10-23T01:04:23.428Z,73.17
2022-10-23T01:07:23.304Z,75.18
2022-10-23T01:10:19.387Z,74.47
2022-10-23T01:13:33.150Z,74.22
2022-10-23T01:16:16.320Z,74.57
2022-10-23T01:19:09.145Z,74.87
2022-10-23T01:22:03.126Z,74.84
2022-10-23T01:24:58.963Z,75.15
2022-10-23T01:28:00.556Z,75.03
2022-10-23T01:30:32.430Z,73.73
2022-10-23T01:33:17.276Z,74.48
2022-10-23T01:36:24.006Z,73.88
2022-10-23T01:39:18.050Z,74.38
2022-10-23T01:42:19.272Z,75.57
2022-10-23T01:44:55.923Z,73.89
2022-10-23T01:47:30.884Z,73.67
2022-10-23T01:50:08.757Z,73.47
2022-10-23T01:52:37.770Z,73.35
2022-10-23T01:55:10.048Z,73.14
2022-10-23T01:57:41.978Z,72.82
2022-10-23T02:00:18.411Z,72.80
2022-10-23T02:02:56.021Z,72.58
2022-10-23T02:05:32.007Z,72.53
2022-10-23T02:08:01.775Z,72.90
2022-10-23T02:13:45.183Z,74.83
2022-10-23T02:16:46.507Z,75.24
2022-10-23T02:19:33.429Z,75.38
2022-10-23T02:22:23.501Z,73.70
2022-10-23T02:25:19.393Z,75.48
2022-10-23T02:27:56.281Z,73.92
2022-10-23T02:30:32.005Z,74.09
2022-10-23T02:33:12.545Z,73.96
2022-10-23T02:35:41.418Z,74.62
2022-10-23T02:38:41.950Z,74.67
2022-10-23T02:41:43.561Z,76.12
2022-10-23T02:44:30.546Z,75.09
2022-10-23T02:47:35.692Z,75.09
2022-10-23T02:50:28.350Z,75.43
2022-10-23T02:52:56.252Z,73.61
2022-10-23T02:55:29.948Z,74.57
2022-10-23T02:58:10.481Z,75.98
2022-10-23T03:00:53.967Z,75.76
2022-10-23T03:03:33.459Z,76.28
2022-10-23T03:06:01.730Z,75.05
2022-10-23T03:08:29.725Z,75.38
2022-10-23T03:10:58.417Z,74.78
2022-10-23T03:13:28.922Z,74.40
2022-10-23T03:15:56.646Z,74.57
2022-10-23T03:18:27.462Z,74.46
2022-10-23T03:20:59.982Z,75.25
2022-10-23T03:23:28.037Z,75.06
2022-10-23T03:25:56.549Z,75.34
2022-10-23T03:28:44.523Z,75.71
2022-10-23T03:31:12.482Z,75.56
2022-10-23T03:33:40.622Z,75.76
2022-10-23T03:36:11.344Z,75.25
2022-10-23T03:38:39.011Z,75.44
2022-10-23T03:41:06.978Z,75.33
2022-10-23T03:43:34.859Z,75.03
2022-10-23T03:46:03.231Z,76.11
2022-10-23T03:48:31.968Z,75.38
2022-10-23T03:50:59.953Z,75.26
2022-10-23T03:53:27.655Z,75.63
2022-10-23T03:55:55.357Z,75.60
2022-10-23T03:58:23.144Z,75.61
2022-10-23T04:00:51.475Z,75.37
2022-10-23T04:03:19.200Z,75.23
2022-10-23T04:05:49.973Z,75.50
2022-10-23T04:08:20.090Z,75.60
2022-10-23T04:10:50.760Z,75.21
2022-10-23T04:13:21.801Z,74.41
2022-10-23T04:15:51.530Z,74.13
2022-10-23T04:18:20.133Z,74.26
2022-10-23T04:20:49.522Z,74.20
2022-10-23T04:23:17.713Z,74.28
2022-10-23T04:28:16.023Z,74.62
2022-10-23T04:30:43.698Z,74.72
2022-10-23T04:33:13.290Z,74.44
2022-10-23T04:35:41.068Z,75.21
2022-10-23T04:38:08.911Z,75.17
2022-10-23T04:40:37.648Z,74.80
2022-10-23T04:43:05.857Z,75.07
2022-10-23T04:45:38.045Z,74.95
2022-10-23T04:48:06.056Z,75.24
2022-10-23T04:50:59.248Z,75.02
2022-10-23T04:53:46.893Z,74.46
2022-10-23T04:56:31.223Z,74.60
2022-10-23T04:59:10.100Z,74.57
2022-10-23T05:01:39.620Z,74.64
2022-10-23T05:04:09.103Z,74.36
2022-10-23T05:06:56.790Z,74.63
2022-10-23T05:09:40.722Z,74.95
2022-10-23T05:12:25.564Z,75.93
2022-10-23T05:14:54.412Z,74.76
2022-10-23T05:17:35.960Z,75.96
2022-10-23T05:20:09.375Z,75.37
2022-10-23T05:22:40.733Z,75.14
2022-10-23T05:25:13.141Z,75.45
2022-10-23T05:27:45.911Z,75.38
2022-10-23T05:30:15.965Z,74.96
2022-10-23T05:32:44.999Z,75.72
2022-10-23T05:35:20.440Z,76.15
2022-10-23T05:37:53.023Z,75.78
2022-10-23T05:40:24.177Z,74.97
2022-10-23T05:42:57.936Z,75.74
2022-10-23T05:45:50.689Z,75.14
2022-10-23T05:48:35.390Z,75.77
2022-10-23T05:51:11.761Z,76.28
2022-10-23T05:53:55.768Z,75.27
2022-10-23T05:56:52.163Z,75.03
2022-10-23T05:59:29.951Z,75.15
2022-10-23T06:02:36.196Z,75.25
2022-10-23T06:05:12.689Z,75.18
2022-10-23T06:08:01.301Z,75.62
2022-10-23T06:10:29.073Z,75.31
2022-10-23T06:13:00.378Z,75.54
2022-10-23T06:15:28.163Z,75.43
2022-10-23T06:18:05.608Z,75.29
2022-10-23T06:20:38.893Z,74.70
2022-10-23T06:23:12.143Z,74.97
2022-10-23T06:26:12.579Z,74.63
2022-10-23T06:28:51.971Z,75.01
2022-10-23T06:31:20.430Z,75.12
2022-10-23T06:33:51.121Z,74.92
2022-10-23T06:36:18.987Z,74.81
2022-10-23T06:38:46.864Z,74.89
2022-10-23T06:41:19.821Z,75.25
2022-10-23T06:43:53.454Z,75.09
2022-10-23T06:46:36.495Z,74.99
2022-10-23T06:49:04.292Z,75.28
2022-10-23T06:51:36.732Z,74.56
2022-10-23T06:54:05.922Z,74.57
2022-10-23T07:10:30.370Z,75.60
2022-10-23T07:13:01.250Z,75.76
2022-10-23T07:15:47.263Z,75.57
2022-10-23T07:18:20.128Z,75.76
2022-10-23T07:21:11.375Z,75.68
2022-10-23T07:23:41.001Z,75.53
2022-10-23T07:26:17.435Z,75.48
2022-10-23T07:28:48.376Z,75.32
2022-10-23T07:31:28.156Z,75.88
2022-10-23T07:34:14.487Z,75.34
2022-10-23T07:36:43.968Z,75.68
2022-10-23T07:39:12.139Z,75.74
2022-10-23T07:41:47.457Z,75.28
2022-10-23T07:44:15.641Z,75.64
2022-10-23T07:46:43.304Z,75.34
2022-10-23T07:49:11.942Z,75.21
2022-10-23T07:51:40.915Z,74.84
2022-10-23T07:54:12.385Z,75.02
2022-10-23T07:57:02.177Z,74.45
2022-10-23T07:59:48.502Z,74.41
2022-10-23T08:16:53.229Z,72.74
2022-10-23T08:19:21.127Z,73.03
2022-10-23T08:21:54.916Z,72.74
2022-10-23T08:24:23.435Z,71.93
2022-10-23T08:26:51.464Z,71.92
2022-10-23T08:29:23.554Z,71.55
2022-10-23T08:31:56.340Z,71.51
2022-10-23T08:34:59.712Z,70.81
2022-10-23T08:37:30.625Z,69.64
2022-10-23T08:39:58.914Z,69.54
2022-10-23T08:42:52.821Z,68.78
2022-10-23T08:45:28.700Z,65.89
2022-10-23T08:48:37.973Z,65.78
2022-10-23T08:51:40.520Z,64.11
2022-10-23T08:54:22.442Z,67.00
2022-10-23T08:56:59.825Z,63.59
2022-10-23T08:59:41.834Z,61.62
2022-10-23T09:02:46.664Z,59.77
2022-10-23T09:05:22.520Z,60.99
2022-10-23T09:08:16.819Z,57.83
2022-10-23T09:11:25.560Z,58.41
2022-10-23T09:13:55.732Z,61.74
2022-10-23T09:17:20.970Z,60.10
2022-10-23T09:20:07.898Z,60.72
2022-10-23T09:22:35.654Z,61.71
2022-10-23T09:25:03.672Z,60.60
2022-10-23T09:27:31.430Z,60.46
2022-10-23T09:29:59.476Z,61.18
2022-10-23T09:32:38.320Z,55.69
2022-10-23T09:35:06.977Z,56.61
2022-10-23T09:37:40.030Z,56.09
2022-10-23T09:40:38.926Z,55.99
2022-10-23T09:43:27.998Z,56.01
2022-10-23T09:46:06.180Z,56.18
2022-10-23T09:48:36.747Z,57.23
2022-10-23T09:51:21.334Z,54.20
2022-10-23T09:54:00.154Z,54.95
2022-10-23T09:56:28.372Z,55.50
2022-10-23T09:59:27.814Z,53.02
2022-10-23T10:01:59.999Z,55.72
2022-10-23T10:04:50.798Z,57.18
